createdAt,value
2018-09-11T00:00:39.491Z,74.45
2018-09-11T00:01:39.733Z,74.26
2018-09-11T00:02:39.974Z,74.26
2018-09-11T00:03:40.214Z,74.07
2018-09-11T00:04:40.456Z,74.55
2018-09-11T00:05:40.697Z,74.65
2018-09-11T00:06:40.934Z,74.07
2018-09-11T00:07:41.176Z,73.97
2018-09-11T00:08:41.415Z,73.97
2018-09-11T00:09:41.658Z,73.02
2018-09-11T00:10:41.901Z,73.97
2018-09-11T00:11:42.138Z,74.65
2018-09-11T00:12:42.377Z,74.32
2018-09-11T00:13:42.618Z,73.27
2018-09-11T00:14:42.857Z,72.41
2018-09-11T00:15:43.097Z,71.45
2018-09-11T00:16:43.337Z,72.02
2018-09-11T00:17:43.578Z,71.83
2018-09-11T00:18:43.818Z,71.16
2018-09-11T00:19:44.058Z,71.93
2018-09-11T00:20:44.299Z,72.16
2018-09-11T00:21:44.540Z,72.44
2018-09-11T00:22:44.782Z,72.06
2018-09-11T00:23:45.022Z,72.16
2018-09-11T00:24:45.262Z,72.83
2018-09-11T00:25:45.501Z,73.59
2018-09-11T00:26:45.741Z,73.27
2018-09-11T00:27:45.989Z,73.27
2018-09-11T00:28:46.221Z,72.50
2018-09-11T00:29:46.461Z,71.26
2018-09-11T00:30:46.701Z,71.55
2018-09-11T00:31:46.944Z,71.93
2018-09-11T00:32:47.179Z,72.41
2018-09-11T00:33:47.419Z,71.73
2018-09-11T00:34:55.278Z,71.55
2018-09-11T00:35:47.950Z,72.31
2018-09-11T00:36:48.190Z,72.12
2018-09-11T00:37:48.431Z,72.02
2018-09-11T00:38:48.672Z,71.83
2018-09-11T00:39:48.911Z,72.50
2018-09-11T00:40:49.155Z,72.31
2018-09-11T00:41:49.390Z,71.55
2018-09-11T00:42:49.630Z,71.61
2018-09-11T00:43:49.869Z,71.51
2018-09-11T00:44:50.111Z,70.84
2018-09-11T00:45:50.349Z,71.61
2018-09-11T00:46:50.589Z,71.80
2018-09-11T00:47:50.828Z,71.03
2018-09-11T00:48:51.066Z,71.13
2018-09-11T00:49:51.307Z,70.84
2018-09-11T00:50:51.545Z,70.36
2018-09-11T00:51:51.835Z,69.89
2018-09-11T00:52:52.028Z,70.46
2018-09-11T00:53:52.269Z,70.46
2018-09-11T00:54:52.507Z,70.17
2018-09-11T00:55:52.744Z,70.17
2018-09-11T00:56:52.984Z,70.30
2018-09-11T00:57:53.231Z,70.50
2018-09-11T00:58:53.461Z,70.50
2018-09-11T00:59:53.704Z,71.26
2018-09-11T01:00:53.946Z,70.97
2018-09-11T01:01:54.180Z,71.26
2018-09-11T01:02:54.420Z,71.36
2018-09-11T01:03:54.667Z,71.55
2018-09-11T01:04:54.902Z,71.16
2018-09-11T01:05:55.145Z,71.36
2018-09-11T01:06:55.372Z,71.16
2018-09-11T01:07:55.622Z,71.45
2018-09-11T01:08:55.875Z,71.55
2018-09-11T01:09:56.100Z,71.26
2018-09-11T01:10:56.341Z,71.45
2018-09-11T01:11:56.580Z,70.97
2018-09-11T01:12:56.824Z,70.87
2018-09-11T01:13:57.062Z,71.07
2018-09-11T01:14:57.300Z,70.59
2018-09-11T01:15:57.540Z,70.30
2018-09-11T01:16:57.783Z,70.40
2018-09-11T01:17:58.019Z,69.54
2018-09-11T01:18:58.258Z,69.54
2018-09-11T01:19:58.497Z,70.21
2018-09-11T01:20:58.737Z,71.36
2018-09-11T01:21:58.974Z,70.97
2018-09-11T01:22:59.218Z,70.59
2018-09-11T01:23:59.487Z,71.07
2018-09-11T01:24:59.697Z,70.68
2018-09-11T01:25:59.949Z,70.68
2018-09-11T01:27:00.176Z,70.50
2018-09-11T01:28:00.413Z,70.87
2018-09-11T01:29:00.654Z,70.40
2018-09-11T01:30:00.899Z,70.40
2018-09-11T01:31:01.136Z,70.50
2018-09-11T01:32:01.376Z,70.50
2018-09-11T01:33:01.616Z,70.01
2018-09-11T01:34:01.857Z,70.11
2018-09-11T01:35:02.099Z,70.30
2018-09-11T01:36:02.337Z,70.01
2018-09-11T01:37:02.579Z,70.59
2018-09-11T01:38:02.819Z,70.21
2018-09-11T01:39:03.055Z,70.11
2018-09-11T01:40:03.302Z,69.41
2018-09-11T01:41:03.538Z,69.41
2018-09-11T01:42:03.779Z,68.74
2018-09-11T01:43:04.017Z,68.84
2018-09-11T01:44:04.255Z,68.35
2018-09-11T01:45:04.494Z,67.97
2018-09-11T01:46:04.736Z,67.97
2018-09-11T01:47:04.975Z,67.59
2018-09-11T01:48:05.212Z,67.59
2018-09-11T01:49:05.453Z,67.30
2018-09-11T01:50:05.693Z,67.30
2018-09-11T01:51:05.935Z,66.83
2018-09-11T01:52:06.175Z,66.92
2018-09-11T01:53:06.414Z,67.69
2018-09-11T01:54:06.657Z,67.63
2018-09-11T01:55:06.896Z,68.16
2018-09-11T01:56:07.136Z,67.69
2018-09-11T01:57:07.374Z,67.11
2018-09-11T01:58:07.614Z,67.49
2018-09-11T01:59:07.851Z,67.59
2018-09-11T02:00:08.093Z,67.02
2018-09-11T02:01:08.331Z,66.83
2018-09-11T02:02:08.570Z,66.73
2018-09-11T02:03:08.810Z,66.54
2018-09-11T02:04:09.050Z,66.35
2018-09-11T02:05:09.293Z,66.73
2018-09-11T02:06:09.530Z,67.69
2018-09-11T02:07:09.770Z,67.59
2018-09-11T02:08:10.009Z,67.69
2018-09-11T02:09:10.251Z,67.97
2018-09-11T02:10:10.489Z,67.88
2018-09-11T02:11:10.730Z,68.16
2018-09-11T02:12:10.969Z,67.59
2018-09-11T02:13:11.206Z,66.92
2018-09-11T02:14:11.446Z,66.83
2018-09-11T02:15:11.687Z,66.92
2018-09-11T02:16:11.926Z,66.35
2018-09-11T02:17:12.167Z,65.58
2018-09-11T02:18:12.405Z,65.87
2018-09-11T02:19:12.645Z,65.97
2018-09-11T02:20:12.885Z,65.87
2018-09-11T02:21:13.126Z,66.06
2018-09-11T02:22:13.367Z,64.91
2018-09-11T02:23:13.607Z,65.30
2018-09-11T02:24:13.847Z,65.20
2018-09-11T02:25:14.087Z,65.01
2018-09-11T02:26:14.331Z,64.15
2018-09-11T02:27:14.566Z,63.96
2018-09-11T02:28:14.806Z,64.12
2018-09-11T02:29:15.046Z,63.45
2018-09-11T02:30:15.291Z,62.78
2018-09-11T02:31:15.531Z,63.07
2018-09-11T02:32:15.769Z,62.87
2018-09-11T02:33:15.996Z,62.97
2018-09-11T02:34:16.238Z,62.21
2018-09-11T02:35:24.110Z,62.49
2018-09-11T02:36:16.783Z,62.01
2018-09-11T02:37:17.016Z,61.54
2018-09-11T02:38:17.256Z,61.63
2018-09-11T02:39:17.496Z,61.35
2018-09-11T02:40:17.735Z,61.82
2018-09-11T02:41:17.976Z,61.72
2018-09-11T02:42:18.214Z,61.63
2018-09-11T02:43:18.452Z,61.82
2018-09-11T02:44:18.694Z,61.16
2018-09-11T02:45:18.932Z,61.35
2018-09-11T02:46:19.180Z,61.03
2018-09-11T02:47:19.411Z,60.84
2018-09-11T02:48:19.650Z,59.88
2018-09-11T02:49:19.957Z,60.17
2018-09-11T02:50:20.131Z,59.59
2018-09-11T02:51:20.371Z,60.27
2018-09-11T02:52:20.608Z,59.12
2018-09-11T02:53:20.847Z,59.15
2018-09-11T02:54:21.091Z,59.24
2018-09-11T02:55:21.329Z,59.63
2018-09-11T02:56:21.563Z,59.72
2018-09-11T02:57:21.803Z,59.91
2018-09-11T02:58:22.042Z,59.24
2018-09-11T02:59:22.287Z,59.53
2018-09-11T03:00:22.528Z,59.05
2018-09-11T03:01:22.766Z,59.24
2018-09-11T03:02:23.002Z,58.93
2018-09-11T03:03:23.242Z,59.05
2018-09-11T03:04:23.482Z,58.86
2018-09-11T03:05:23.720Z,59.15
2018-09-11T03:06:23.957Z,59.24
2018-09-11T03:07:24.200Z,60.01
2018-09-11T03:08:24.436Z,59.91
2018-09-11T03:09:24.674Z,59.78
2018-09-11T03:10:24.914Z,59.41
2018-09-11T03:11:25.152Z,59.24
2018-09-11T03:12:25.392Z,59.31
2018-09-11T03:13:25.631Z,59.41
2018-09-11T03:14:25.874Z,59.22
2018-09-11T03:15:26.110Z,58.83
2018-09-11T03:16:26.350Z,58.73
2018-09-11T03:17:26.589Z,58.36
2018-09-11T03:18:26.827Z,57.21
2018-09-11T03:19:27.064Z,57.11
2018-09-11T03:20:27.304Z,56.63
2018-09-11T03:21:27.544Z,57.02
2018-09-11T03:22:27.784Z,56.92
2018-09-11T03:23:28.022Z,56.63
2018-09-11T03:24:28.258Z,56.92
2018-09-11T03:25:28.498Z,57.11
2018-09-11T03:26:28.737Z,57.11
2018-09-11T03:27:28.975Z,56.54
2018-09-11T03:28:29.216Z,57.02
2018-09-11T03:29:29.453Z,56.73
2018-09-11T03:30:29.692Z,55.87
2018-09-11T03:31:29.930Z,55.11
2018-09-11T03:32:30.169Z,54.25
2018-09-11T03:33:30.407Z,53.49
2018-09-11T03:34:30.647Z,53.20
2018-09-11T03:35:30.887Z,53.58
2018-09-11T03:36:31.128Z,53.58
2018-09-11T03:37:31.368Z,53.58
2018-09-11T03:38:31.608Z,53.77
2018-09-11T03:39:31.847Z,53.49
2018-09-11T03:40:32.085Z,53.77
2018-09-11T03:41:32.324Z,54.25
2018-09-11T03:42:32.562Z,53.67
2018-09-11T03:43:32.800Z,54.06
2018-09-11T03:44:33.046Z,53.77
2018-09-11T03:45:33.288Z,53.39
2018-09-11T03:46:33.526Z,53.39
2018-09-11T03:47:33.759Z,53.58
2018-09-11T03:48:33.998Z,53.39
2018-09-11T03:49:34.236Z,53.49
2018-09-11T03:50:34.475Z,53.29
2018-09-11T03:51:34.713Z,53.49
2018-09-11T03:52:34.952Z,53.29
2018-09-11T03:53:35.195Z,52.62
2018-09-11T03:54:35.429Z,51.95
2018-09-11T03:55:35.667Z,52.05
2018-09-11T03:56:35.905Z,51.29
2018-09-11T03:57:36.145Z,51.29
2018-09-11T03:58:36.383Z,51.29
2018-09-11T03:59:36.620Z,51.29
2018-09-11T04:00:36.864Z,51.19
2018-09-11T04:01:37.103Z,51.38
2018-09-11T04:02:37.341Z,50.62
2018-09-11T04:03:37.583Z,50.14
2018-09-11T04:04:37.819Z,50.24
2018-09-11T04:05:38.169Z,50.14
2018-09-11T04:06:38.295Z,50.14
2018-09-11T04:07:38.519Z,50.52
2018-09-11T04:08:38.771Z,50.33
2018-09-11T04:09:39.028Z,50.71
2018-09-11T04:10:39.247Z,50.62
2018-09-11T04:11:39.487Z,50.62
2018-09-11T04:12:39.727Z,51.29
2018-09-11T04:13:39.969Z,51.09
2018-09-11T04:14:40.204Z,51.38
2018-09-11T04:15:40.437Z,51.38
2018-09-11T04:16:40.680Z,50.62
2018-09-11T04:17:40.911Z,50.71
2018-09-11T04:18:41.158Z,51.48
2018-09-11T04:19:41.400Z,51.86
2018-09-11T04:20:41.639Z,52.05
2018-09-11T04:21:41.883Z,52.34
2018-09-11T04:22:42.114Z,52.81
2018-09-11T04:23:42.351Z,53.10
2018-09-11T04:24:42.590Z,53.49
2018-09-11T04:25:42.883Z,52.72
2018-09-11T04:26:43.069Z,52.91
2018-09-11T04:27:43.311Z,52.05
2018-09-11T04:28:43.548Z,51.29
2018-09-11T04:29:43.789Z,51.29
2018-09-11T04:30:44.027Z,51.19
2018-09-11T04:31:44.263Z,51.19
2018-09-11T04:32:44.503Z,51.38
2018-09-11T04:33:44.742Z,51.38
2018-09-11T04:34:44.978Z,51.48
2018-09-11T04:35:52.832Z,51.95
2018-09-11T04:36:45.499Z,52.08
2018-09-11T04:37:45.738Z,52.81
2018-09-11T04:38:45.977Z,53.41
2018-09-11T04:39:46.217Z,53.70
2018-09-11T04:40:46.456Z,54.08
2018-09-11T04:41:46.693Z,54.56
2018-09-11T04:42:46.970Z,54.66
2018-09-11T04:43:47.177Z,54.85
2018-09-11T04:44:47.413Z,54.47
2018-09-11T04:45:47.660Z,54.37
2018-09-11T04:46:47.888Z,54.27
2018-09-11T04:47:48.129Z,54.18
2018-09-11T04:48:48.367Z,54.18
2018-09-11T04:49:48.608Z,54.27
2018-09-11T04:50:48.844Z,53.99
2018-09-11T04:51:49.083Z,55.04
2018-09-11T04:52:49.321Z,54.85
2018-09-11T04:53:49.562Z,55.99
2018-09-11T04:54:49.799Z,55.99
2018-09-11T04:55:50.040Z,56.18
2018-09-11T04:56:50.277Z,57.14
2018-09-11T04:57:50.517Z,56.95
2018-09-11T04:58:50.757Z,57.33
2018-09-11T04:59:50.995Z,58.38
2018-09-11T05:00:51.235Z,57.62
2018-09-11T05:01:51.474Z,57.33
2018-09-11T05:02:51.714Z,56.57
2018-09-11T05:03:51.953Z,56.38
2018-09-11T05:04:52.192Z,55.90
2018-09-11T05:05:52.433Z,55.71
2018-09-11T05:06:52.671Z,55.42
2018-09-11T05:07:52.913Z,55.23
2018-09-11T05:08:53.151Z,54.66
2018-09-11T05:09:53.391Z,54.47
2018-09-11T05:10:53.631Z,54.85
2018-09-11T05:11:53.870Z,54.47
2018-09-11T05:12:54.111Z,54.27
2018-09-11T05:13:54.362Z,54.18
2018-09-11T05:14:54.604Z,53.80
2018-09-11T05:15:54.860Z,53.51
2018-09-11T05:16:55.105Z,53.03
2018-09-11T05:17:55.342Z,53.13
2018-09-11T05:18:55.585Z,53.70
2018-09-11T05:19:55.821Z,53.32
2018-09-11T05:20:56.064Z,53.70
2018-09-11T05:21:56.303Z,54.56
2018-09-11T05:22:56.544Z,55.04
2018-09-11T05:23:56.784Z,55.23
2018-09-11T05:24:57.028Z,55.23
2018-09-11T05:25:57.263Z,54.47
2018-09-11T05:26:57.503Z,53.32
2018-09-11T05:27:57.749Z,52.75
2018-09-11T05:28:57.979Z,52.17
2018-09-11T05:29:58.221Z,52.26
2018-09-11T05:30:58.458Z,53.41
2018-09-11T05:31:58.699Z,54.06
2018-09-11T05:32:58.940Z,54.85
2018-09-11T05:33:59.179Z,54.66
2018-09-11T05:34:59.420Z,54.75
2018-09-11T05:35:59.659Z,55.23
2018-09-11T05:36:59.906Z,54.94
2018-09-11T05:38:00.138Z,55.68
2018-09-11T05:39:00.424Z,55.68
2018-09-11T05:40:00.615Z,55.71
2018-09-11T05:41:00.853Z,55.71
2018-09-11T05:42:01.095Z,56.09
2018-09-11T05:43:01.335Z,55.71
2018-09-11T05:44:01.570Z,56.28
2018-09-11T05:45:01.804Z,55.96
2018-09-11T05:46:02.040Z,56.57
2018-09-11T05:47:02.303Z,56.47
2018-09-11T05:48:02.521Z,56.76
2018-09-11T05:49:02.757Z,57.62
2018-09-11T05:50:02.996Z,58.29
2018-09-11T05:51:03.241Z,58.00
2018-09-11T05:52:03.472Z,58.76
2018-09-11T05:53:03.712Z,59.44
2018-09-11T05:54:03.950Z,60.58
2018-09-11T05:55:04.188Z,61.25
2018-09-11T05:56:04.427Z,61.76
2018-09-11T05:57:04.666Z,63.57
2018-09-11T05:58:04.904Z,66.35
2018-09-11T05:59:05.145Z,68.20
2018-09-11T06:00:05.384Z,70.68
2018-09-11T06:01:05.623Z,73.21
2018-09-11T06:02:05.867Z,75.98
2018-09-11T06:03:06.103Z,77.51
2018-09-11T06:04:06.347Z,77.65
2018-09-11T06:05:06.582Z,78.22
2018-09-11T06:06:06.826Z,77.84
2018-09-11T06:07:07.061Z,78.22
2018-09-11T06:08:07.301Z,77.55
2018-09-11T06:09:07.540Z,78.22
2018-09-11T06:10:07.779Z,76.98
2018-09-11T06:11:08.021Z,78.74
2018-09-11T06:12:08.262Z,82.37
2018-09-11T06:13:08.500Z,85.63
2018-09-11T06:14:08.738Z,84.86
2018-09-11T06:15:08.978Z,86.15
2018-09-11T06:16:09.245Z,88.79
2018-09-11T06:17:09.459Z,87.44
2018-09-11T06:18:09.702Z,88.88
2018-09-11T06:19:09.942Z,90.12
2018-09-11T06:20:10.186Z,89.54
2018-09-11T06:21:10.427Z,87.82
2018-09-11T06:22:10.667Z,88.01
2018-09-11T06:23:10.908Z,85.81
2018-09-11T06:24:11.146Z,88.21
2018-09-11T06:25:11.389Z,86.87
2018-09-11T06:26:11.631Z,86.68
2018-09-11T06:27:11.872Z,88.87
2018-09-11T06:28:12.117Z,87.86
2018-09-11T06:29:12.380Z,87.52
2018-09-11T06:30:12.594Z,86.12
2018-09-11T06:31:12.840Z,85.88
2018-09-11T06:32:13.080Z,86.94
2018-09-11T06:33:13.323Z,86.30
2018-09-11T06:34:13.563Z,84.23
2018-09-11T06:35:13.805Z,83.66
2018-09-11T06:36:14.050Z,84.43
2018-09-11T06:37:22.957Z,83.07
2018-09-11T06:38:14.676Z,81.37
2018-09-11T06:39:14.918Z,81.25
2018-09-11T06:40:15.161Z,83.63
2018-09-11T06:41:15.491Z,85.55
2018-09-11T06:42:15.647Z,85.98
2018-09-11T06:43:15.891Z,85.83
2018-09-11T06:44:16.138Z,84.58
2018-09-11T06:45:16.368Z,84.39
2018-09-11T06:46:16.617Z,82.83
2018-09-11T06:47:16.862Z,81.10
2018-09-11T06:48:17.102Z,81.14
2018-09-11T06:49:17.342Z,80.46
2018-09-11T06:50:17.585Z,79.60
2018-09-11T06:51:17.833Z,79.21
2018-09-11T06:52:18.072Z,78.19
2018-09-11T06:53:18.315Z,78.29
2018-09-11T06:54:18.558Z,78.67
2018-09-11T06:55:18.808Z,78.25
2018-09-11T06:56:19.064Z,78.63
2018-09-11T06:57:19.295Z,79.36
2018-09-11T06:58:19.539Z,79.56
2018-09-11T06:59:19.786Z,80.58
2018-09-11T07:00:20.025Z,81.45
2018-09-11T07:01:20.270Z,81.79
2018-09-11T07:02:20.514Z,82.85
2018-09-11T07:03:20.758Z,83.14
2018-09-11T07:04:21.013Z,82.75
2018-09-11T07:05:21.260Z,82.27
2018-09-11T07:06:21.507Z,82.21
2018-09-11T07:07:21.752Z,81.96
2018-09-11T07:08:22.046Z,80.56
2018-09-11T07:09:22.232Z,80.23
2018-09-11T07:10:22.477Z,80.96
2018-09-11T07:11:22.721Z,80.96
2018-09-11T07:12:22.963Z,81.06
2018-09-11T07:13:23.211Z,81.06
2018-09-11T07:14:23.457Z,80.62
2018-09-11T07:15:23.699Z,80.81
2018-09-11T07:16:23.939Z,80.27
2018-09-11T07:17:24.190Z,79.89
2018-09-11T07:18:24.420Z,79.89
2018-09-11T07:19:24.675Z,79.97
2018-09-11T07:20:25.018Z,76.86
2018-09-11T07:21:25.152Z,73.32
2018-09-11T07:22:25.398Z,72.94
2018-09-11T07:23:25.637Z,72.22
2018-09-11T07:24:25.883Z,73.25
2018-09-11T07:25:26.141Z,76.01
2018-09-11T07:26:26.371Z,78.40
2018-09-11T07:27:26.615Z,80.87
2018-09-11T07:28:26.858Z,81.16
2018-09-11T07:29:27.103Z,81.35
2018-09-11T07:30:27.413Z,81.20
2018-09-11T07:31:27.630Z,80.52
2018-09-11T07:32:27.890Z,80.33
2018-09-11T07:33:28.076Z,80.38
2018-09-11T07:34:28.322Z,81.12
2018-09-11T07:35:28.566Z,81.50
2018-09-11T07:36:28.871Z,81.79
2018-09-11T07:37:29.054Z,82.17
2018-09-11T07:38:29.302Z,81.29
2018-09-11T07:39:29.545Z,80.18
2018-09-11T07:40:29.820Z,79.21
2018-09-11T07:41:30.033Z,78.00
2018-09-11T07:42:30.278Z,77.61
2018-09-11T07:43:30.522Z,77.81
2018-09-11T07:44:30.764Z,76.93
2018-09-11T07:45:31.070Z,76.71
2018-09-11T07:46:31.254Z,76.84
2018-09-11T07:47:31.499Z,77.48
2018-09-11T07:48:31.747Z,78.25
2018-09-11T07:49:31.993Z,78.34
2018-09-11T07:50:32.239Z,77.86
2018-09-11T07:51:32.482Z,76.68
2018-09-11T07:52:32.804Z,74.79
2018-09-11T07:53:32.970Z,73.38
2018-09-11T07:54:33.214Z,72.45
2018-09-11T07:55:33.460Z,70.07
2018-09-11T07:56:33.756Z,68.75
2018-09-11T07:57:34.020Z,67.59
2018-09-11T07:58:34.253Z,68.56
2018-09-11T07:59:34.500Z,67.21
2018-09-11T08:00:34.745Z,67.49
2018-09-11T08:01:34.991Z,68.33
2018-09-11T08:02:35.241Z,70.26
2018-09-11T08:03:35.484Z,71.74
2018-09-11T08:04:35.736Z,70.81
2018-09-11T08:05:35.979Z,70.68
2018-09-11T08:06:36.223Z,70.29
2018-09-11T08:07:36.472Z,70.72
2018-09-11T08:08:36.719Z,69.10
2018-09-11T08:09:36.980Z,68.91
2018-09-11T08:10:37.215Z,68.68
2018-09-11T08:11:37.463Z,69.62
2018-09-11T08:12:37.707Z,69.65
2018-09-11T08:13:37.954Z,69.84
2018-09-11T08:14:38.201Z,67.79
2018-09-11T08:15:38.445Z,66.66
2018-09-11T08:16:38.694Z,64.50
2018-09-11T08:17:38.942Z,64.66
2018-09-11T08:18:39.213Z,65.27
2018-09-11T08:19:39.449Z,66.24
2018-09-11T08:20:39.686Z,66.14
2018-09-11T08:21:39.933Z,65.40
2018-09-11T08:22:40.181Z,66.72
2018-09-11T08:23:40.429Z,65.79
2018-09-11T08:24:40.678Z,65.27
2018-09-11T08:25:40.926Z,64.92
2018-09-11T08:26:41.174Z,66.24
2018-09-11T08:27:41.424Z,65.95
2018-09-11T08:28:41.671Z,65.11
2018-09-11T08:29:41.919Z,64.43
2018-09-11T08:30:42.167Z,63.46
2018-09-11T08:31:42.414Z,62.27
2018-09-11T08:32:42.666Z,62.85
2018-09-11T08:33:42.912Z,63.95
2018-09-11T08:34:43.160Z,65.40
2018-09-11T08:35:43.410Z,64.85
2018-09-11T08:36:43.658Z,64.04
2018-09-11T08:37:43.905Z,64.37
2018-09-11T08:38:44.156Z,64.04
2018-09-11T08:39:44.411Z,62.52
2018-09-11T08:40:44.652Z,61.82
2018-09-11T08:41:44.900Z,61.10
2018-09-11T08:42:45.150Z,58.93
2018-09-11T08:43:45.399Z,58.67
2018-09-11T08:44:45.647Z,60.00
2018-09-11T08:45:45.896Z,60.36
2018-09-11T08:46:46.181Z,60.94
2018-09-11T08:47:46.395Z,61.33
2018-09-11T08:48:46.644Z,60.85
2018-09-11T08:49:46.894Z,59.87
2018-09-11T08:50:47.145Z,59.61
2018-09-11T08:51:47.395Z,59.88
2018-09-11T08:52:47.705Z,60.00
2018-09-11T08:53:47.894Z,59.45
2018-09-11T08:54:48.143Z,58.22
2018-09-11T08:55:48.394Z,57.83
2018-09-11T08:56:48.643Z,57.61
2018-09-11T08:57:48.894Z,58.84
2018-09-11T08:58:49.145Z,58.97
2018-09-11T08:59:49.394Z,58.58
2018-09-11T09:00:49.645Z,58.74
2018-09-11T09:01:49.897Z,59.81
2018-09-11T09:02:50.150Z,59.00
2018-09-11T09:03:50.398Z,60.10
2018-09-11T09:04:50.648Z,58.77
2018-09-11T09:05:50.898Z,56.40
2018-09-11T09:06:51.200Z,55.43
2018-09-11T09:07:51.397Z,56.97
2018-09-11T09:08:51.649Z,58.74
2018-09-11T09:09:51.900Z,57.61
2018-09-11T09:10:52.149Z,56.28
2018-09-11T09:11:52.402Z,55.73
2018-09-11T09:12:52.656Z,54.90
2018-09-11T09:13:52.907Z,56.32
2018-09-11T09:14:53.158Z,56.68
2018-09-11T09:15:53.413Z,57.55
2018-09-11T09:16:53.663Z,58.45
2018-09-11T09:17:53.913Z,57.32
2018-09-11T09:18:54.161Z,56.23
2018-09-11T09:19:54.416Z,57.19
2018-09-11T09:20:54.717Z,56.23
2018-09-11T09:21:54.924Z,57.48
2018-09-11T09:22:55.174Z,58.69
2018-09-11T09:23:55.424Z,58.62
2018-09-11T09:24:55.674Z,57.48
2018-09-11T09:25:55.927Z,56.45
2018-09-11T09:26:56.180Z,55.18
2018-09-11T09:27:56.430Z,56.61
2018-09-11T09:28:56.681Z,57.29
2018-09-11T09:29:56.930Z,56.93
2018-09-11T09:30:57.181Z,55.67
2018-09-11T09:31:57.435Z,57.22
2018-09-11T09:32:57.689Z,57.48
2018-09-11T09:33:57.942Z,57.00
2018-09-11T09:34:58.194Z,56.25
2018-09-11T09:35:58.447Z,55.41
2018-09-11T09:36:58.729Z,55.28
2018-09-11T09:37:58.948Z,57.29
2018-09-11T09:38:59.201Z,55.64
2018-09-11T09:39:59.450Z,55.08
2018-09-11T09:40:59.705Z,54.80
2018-09-11T09:41:59.959Z,54.05
2018-09-11T09:43:00.211Z,54.41
2018-09-11T09:44:00.517Z,55.54
2018-09-11T09:45:00.712Z,55.67
2018-09-11T09:46:00.965Z,55.64
2018-09-11T09:47:01.214Z,56.45
2018-09-11T09:48:01.470Z,54.96
2018-09-11T09:49:01.719Z,55.47
2018-09-11T09:50:01.974Z,55.26
2018-09-11T09:51:02.227Z,54.09
2018-09-11T09:52:02.477Z,53.83
2018-09-11T09:53:02.729Z,52.28
2018-09-11T09:54:02.981Z,51.35
2018-09-11T09:55:03.235Z,50.53
2018-09-11T09:56:03.483Z,50.29
2018-09-11T09:57:03.738Z,51.26
2018-09-11T09:58:03.989Z,52.18
2018-09-11T09:59:04.239Z,51.75
2018-09-11T10:00:04.491Z,52.47
2018-09-11T10:01:04.744Z,50.82
2018-09-11T10:02:04.995Z,51.18
2018-09-11T10:03:05.247Z,52.20
2018-09-11T10:04:05.504Z,53.08
2018-09-11T10:05:05.752Z,52.50
2018-09-11T10:06:06.004Z,52.23
2018-09-11T10:07:06.259Z,52.30
2018-09-11T10:08:06.509Z,53.41
2018-09-11T10:09:06.760Z,53.44
2018-09-11T10:10:07.013Z,53.24
2018-09-11T10:11:07.263Z,52.91
2018-09-11T10:12:07.517Z,52.13
2018-09-11T10:13:07.771Z,53.89
2018-09-11T10:14:08.025Z,53.37
2018-09-11T10:15:08.290Z,51.50
2018-09-11T10:16:08.532Z,50.63
2018-09-11T10:17:08.781Z,49.95
2018-09-11T10:18:09.032Z,50.51
2018-09-11T10:19:09.286Z,50.77
2018-09-11T10:20:09.540Z,51.93
2018-09-11T10:21:09.792Z,50.34
2018-09-11T10:22:10.044Z,50.70
2018-09-11T10:23:10.297Z,50.04
2018-09-11T10:24:10.551Z,50.53
2018-09-11T10:25:10.804Z,50.89
2018-09-11T10:26:11.058Z,51.55
2018-09-11T10:27:11.310Z,50.85
2018-09-11T10:28:11.562Z,50.29
2018-09-11T10:29:11.812Z,49.41
2018-09-11T10:30:12.066Z,49.39
2018-09-11T10:31:12.320Z,49.76
2018-09-11T10:32:12.570Z,49.78
2018-09-11T10:33:12.827Z,50.63
2018-09-11T10:34:13.078Z,50.43
2018-09-11T10:35:13.331Z,49.95
2018-09-11T10:36:13.583Z,50.43
2018-09-11T10:37:13.836Z,50.04
2018-09-11T10:38:14.089Z,50.75
2018-09-11T10:39:14.391Z,50.63
2018-09-11T10:40:14.596Z,50.16
2018-09-11T10:41:14.845Z,49.32
2018-09-11T10:42:15.099Z,48.80
2018-09-11T10:43:15.352Z,48.93
2018-09-11T10:44:15.605Z,48.78
2018-09-11T10:45:15.858Z,49.27
2018-09-11T10:46:16.111Z,50.34
2018-09-11T10:47:16.363Z,50.85
2018-09-11T10:48:16.616Z,50.63
2018-09-11T10:49:16.869Z,50.82
2018-09-11T10:50:17.122Z,50.75
2018-09-11T10:51:17.377Z,50.16
2018-09-11T10:52:17.630Z,51.04
2018-09-11T10:53:17.882Z,49.24
2018-09-11T10:54:18.135Z,49.39
2018-09-11T10:55:18.388Z,50.63
2018-09-11T10:56:18.640Z,50.92
2018-09-11T10:57:18.898Z,50.19
2018-09-11T10:58:19.157Z,49.32
2018-09-11T10:59:19.398Z,48.85
2018-09-11T11:00:19.657Z,47.44
2018-09-11T11:01:19.907Z,47.22
2018-09-11T11:02:20.155Z,47.63
2018-09-11T11:03:20.408Z,46.64
2018-09-11T11:04:20.662Z,46.37
2018-09-11T11:05:20.915Z,47.22
2018-09-11T11:06:21.168Z,47.34
2018-09-11T11:07:21.421Z,46.59
2018-09-11T11:08:21.679Z,46.56
2018-09-11T11:09:21.929Z,47.78
2018-09-11T11:10:22.181Z,48.83
2018-09-11T11:11:22.435Z,49.00
2018-09-11T11:12:22.691Z,49.85
2018-09-11T11:13:22.944Z,49.32
2018-09-11T11:14:23.201Z,48.83
2018-09-11T11:15:23.455Z,48.83
2018-09-11T11:16:23.708Z,49.00
2018-09-11T11:17:23.964Z,50.34
2018-09-11T11:18:24.218Z,48.95
2018-09-11T11:19:24.471Z,47.46
2018-09-11T11:20:24.727Z,46.78
2018-09-11T11:21:24.981Z,47.05
2018-09-11T11:22:25.234Z,46.56
2018-09-11T11:23:25.488Z,46.59
2018-09-11T11:24:25.745Z,45.59
2018-09-11T11:25:26.003Z,46.05
2018-09-11T11:26:26.256Z,45.95
2018-09-11T11:27:26.509Z,46.64
2018-09-11T11:28:26.762Z,44.23
2018-09-11T11:29:27.017Z,46.81
2018-09-11T11:30:27.275Z,47.22
2018-09-11T11:31:27.523Z,46.83
2018-09-11T11:32:27.776Z,46.05
2018-09-11T11:33:28.030Z,46.56
2018-09-11T11:34:28.283Z,45.25
2018-09-11T11:35:28.538Z,45.61
2018-09-11T11:36:28.870Z,45.59
2018-09-11T11:37:29.226Z,46.27
2018-09-11T11:38:29.300Z,46.01
2018-09-11T11:39:29.554Z,46.73
2018-09-11T11:40:29.806Z,45.61
2018-09-11T11:41:30.062Z,45.12
2018-09-11T11:42:30.316Z,44.93
2018-09-11T11:43:30.569Z,45.22
2018-09-11T11:44:30.823Z,45.44
2018-09-11T11:45:31.076Z,44.31
2018-09-11T11:46:31.333Z,42.50
2018-09-11T11:47:31.582Z,40.97
2018-09-11T11:48:31.829Z,41.25
2018-09-11T11:49:32.090Z,42.58
2018-09-11T11:50:32.342Z,43.07
2018-09-11T11:51:32.598Z,42.26
2018-09-11T11:52:32.851Z,42.97
2018-09-11T11:53:33.109Z,42.46
2018-09-11T11:54:33.362Z,42.68
2018-09-11T11:55:33.691Z,42.42
2018-09-11T11:56:33.869Z,40.86
2018-09-11T11:57:34.126Z,41.64
2018-09-11T11:58:34.382Z,42.77
2018-09-11T11:59:34.637Z,41.83
2018-09-11T12:00:34.896Z,41.66
2018-09-11T12:01:35.177Z,40.68
2018-09-11T12:02:35.405Z,41.21
2018-09-11T12:03:35.662Z,40.88
2018-09-11T12:04:35.918Z,40.08
2018-09-11T12:05:36.178Z,40.33
2018-09-11T12:06:36.430Z,41.91
2018-09-11T12:07:36.692Z,43.27
2018-09-11T12:08:36.943Z,44.24
2018-09-11T12:09:37.198Z,42.65
2018-09-11T12:10:37.453Z,41.80
2018-09-11T12:11:37.707Z,40.64
2018-09-11T12:12:37.964Z,40.04
2018-09-11T12:13:38.219Z,40.56
2018-09-11T12:14:38.475Z,41.73
2018-09-11T12:15:38.731Z,42.79
2018-09-11T12:16:38.985Z,41.81
2018-09-11T12:17:39.241Z,42.49
2018-09-11T12:18:39.495Z,42.80
2018-09-11T12:19:39.748Z,41.62
2018-09-11T12:20:40.007Z,40.47
2018-09-11T12:21:40.258Z,41.02
2018-09-11T12:22:40.514Z,41.80
2018-09-11T12:23:40.770Z,41.03
2018-09-11T12:24:41.028Z,41.71
2018-09-11T12:25:41.281Z,41.32
2018-09-11T12:26:41.595Z,40.68
2018-09-11T12:27:41.790Z,40.48
2018-09-11T12:28:42.044Z,41.35
2018-09-11T12:29:42.300Z,41.54
2018-09-11T12:30:42.571Z,41.73
2018-09-11T12:31:42.811Z,41.77
2018-09-11T12:32:43.065Z,41.48
2018-09-11T12:33:43.321Z,40.89
2018-09-11T12:34:43.576Z,40.55
2018-09-11T12:35:43.832Z,40.11
2018-09-11T12:36:44.087Z,40.60
2018-09-11T12:37:44.340Z,40.97
2018-09-11T12:38:44.594Z,40.92
2018-09-11T12:39:44.850Z,40.43
2018-09-11T12:40:45.110Z,39.70
2018-09-11T12:41:45.364Z,40.00
2018-09-11T12:42:45.614Z,41.11
2018-09-11T12:43:45.868Z,40.23
2018-09-11T12:44:46.123Z,39.49
2018-09-11T12:45:46.444Z,39.47
2018-09-11T12:46:46.799Z,38.98
2018-09-11T12:47:47.190Z,40.88
2018-09-11T12:48:47.204Z,41.19
2018-09-11T12:49:47.395Z,40.76
2018-09-11T12:50:47.649Z,39.53
2018-09-11T12:51:47.903Z,39.67
2018-09-11T12:52:48.158Z,39.88
2018-09-11T12:53:48.411Z,39.96
2018-09-11T12:54:48.667Z,40.21
2018-09-11T12:55:48.925Z,40.88